createdAt,value
2023-04-26T00:01:39.805Z,26.78
2023-04-26T00:04:10.134Z,26.66
2023-04-26T00:06:39.380Z,26.63
2023-04-26T00:09:09.042Z,26.60
2023-04-26T00:11:38.133Z,26.49
2023-04-26T00:14:07.444Z,26.48
2023-04-26T00:16:36.510Z,26.45
2023-04-26T00:19:05.631Z,26.46
2023-04-26T00:21:35.979Z,26.46
2023-04-26T00:24:06.738Z,26.43
2023-04-26T00:26:36.574Z,26.41
2023-04-26T00:29:06.555Z,26.41
2023-04-26T00:31:35.672Z,26.38
2023-04-26T00:34:04.522Z,26.40
2023-04-26T00:36:37.377Z,26.40
2023-04-26T00:39:07.496Z,26.40
2023-04-26T00:41:38.181Z,26.35
2023-04-26T00:44:07.646Z,26.34
2023-04-26T00:46:38.842Z,26.35
2023-04-26T00:49:08.295Z,26.23
2023-04-26T00:51:38.360Z,26.35
2023-04-26T00:54:07.886Z,26.35
2023-04-26T00:56:38.960Z,26.45
2023-04-26T00:59:08.440Z,26.46
2023-04-26T01:01:39.070Z,26.43
2023-04-26T01:04:09.150Z,26.43
2023-04-26T01:06:39.698Z,26.46
2023-04-26T01:09:11.994Z,26.56
2023-04-26T01:11:41.501Z,26.55
2023-04-26T01:14:11.822Z,26.60
2023-04-26T01:16:41.943Z,26.68
2023-04-26T01:19:14.314Z,26.77
2023-04-26T01:21:44.359Z,26.75
2023-04-26T01:24:15.051Z,26.78
2023-04-26T01:26:47.511Z,26.74
2023-04-26T01:29:19.666Z,26.99
2023-04-26T01:31:49.920Z,26.92
2023-04-26T01:34:18.944Z,26.89
2023-04-26T01:36:48.207Z,26.84
2023-04-26T01:39:17.725Z,26.96
2023-04-26T01:41:46.720Z,26.97
2023-04-26T01:44:15.921Z,27.03
2023-04-26T01:46:46.073Z,27.11
2023-04-26T01:49:15.338Z,27.20
2023-04-26T01:51:44.301Z,27.22
2023-04-26T01:54:13.658Z,27.24
2023-04-26T01:56:43.347Z,27.36
2023-04-26T01:59:12.367Z,27.43
2023-04-26T02:01:44.497Z,27.42
2023-04-26T02:04:13.614Z,27.55
2023-04-26T02:06:43.284Z,27.52
2023-04-26T02:09:12.520Z,27.59
2023-04-26T02:11:42.353Z,27.69
2023-04-26T02:14:11.162Z,27.67
2023-04-26T02:16:41.645Z,27.83
2023-04-26T02:19:14.532Z,27.83
2023-04-26T02:21:54.333Z,27.95
2023-04-26T02:24:24.276Z,28.00
2023-04-26T02:26:53.988Z,28.00
2023-04-26T02:29:36.428Z,28.16
2023-04-26T02:32:12.901Z,28.20
2023-04-26T02:34:42.217Z,28.16
2023-04-26T02:37:11.319Z,28.27
2023-04-26T02:39:40.599Z,28.28
2023-04-26T02:42:12.664Z,28.44
2023-04-26T02:44:41.812Z,28.51
2023-04-26T02:47:11.606Z,28.65
2023-04-26T02:49:40.683Z,28.59
2023-04-26T02:52:09.603Z,28.80
2023-04-26T02:54:39.993Z,28.73
2023-04-26T02:57:09.258Z,28.79
2023-04-26T02:59:38.084Z,29.01
2023-04-26T03:02:08.064Z,29.17
2023-04-26T03:04:37.203Z,29.24
2023-04-26T03:07:06.224Z,29.36
2023-04-26T03:09:36.011Z,29.40
2023-04-26T03:12:05.368Z,29.60
2023-04-26T03:14:35.214Z,29.71
2023-04-26T03:17:04.518Z,29.85
2023-04-26T03:19:35.470Z,30.01
2023-04-26T03:22:06.905Z,30.01
2023-04-26T03:24:38.365Z,30.23
2023-04-26T03:27:07.677Z,30.40
2023-04-26T03:29:37.017Z,30.44
2023-04-26T03:32:07.445Z,30.57
2023-04-26T03:34:36.783Z,30.68
2023-04-26T03:37:06.740Z,30.77
2023-04-26T03:39:36.143Z,30.92
2023-04-26T03:42:04.993Z,31.03
2023-04-26T03:44:35.521Z,31.16
2023-04-26T03:47:09.738Z,31.27
2023-04-26T03:49:38.779Z,31.39
2023-04-26T03:52:10.902Z,31.51
2023-04-26T03:54:39.916Z,31.54
2023-04-26T03:57:10.479Z,31.75
2023-04-26T03:59:39.552Z,31.87
2023-04-26T04:02:08.687Z,32.03
2023-04-26T04:04:38.480Z,32.18
2023-04-26T04:07:08.999Z,32.30
2023-04-26T04:09:38.438Z,32.35
2023-04-26T04:12:08.969Z,32.29
2023-04-26T04:14:39.271Z,32.61
2023-04-26T04:17:09.606Z,32.57
2023-04-26T04:19:39.181Z,32.75
2023-04-26T04:22:08.384Z,32.93
2023-04-26T04:24:38.630Z,33.01
2023-04-26T04:27:08.422Z,33.11
2023-04-26T04:29:37.642Z,33.38
2023-04-26T04:32:07.282Z,33.46
2023-04-26T04:34:37.453Z,33.57
2023-04-26T04:37:06.755Z,33.74
2023-04-26T04:39:36.568Z,33.92
2023-04-26T04:42:05.879Z,34.07
2023-04-26T04:44:34.622Z,34.04
2023-04-26T04:47:03.783Z,34.01
2023-04-26T04:49:33.053Z,34.23
2023-04-26T04:52:02.484Z,34.19
2023-04-26T04:54:31.583Z,34.46
2023-04-26T04:57:00.796Z,34.49
2023-04-26T04:59:30.160Z,34.68
2023-04-26T05:01:59.380Z,34.71
2023-04-26T05:04:29.279Z,34.69
2023-04-26T05:06:58.642Z,34.74
2023-04-26T05:09:27.754Z,34.81
2023-04-26T05:11:57.140Z,34.90
2023-04-26T05:14:26.927Z,34.94
2023-04-26T05:16:56.203Z,35.10
2023-04-26T05:19:25.626Z,35.05
2023-04-26T05:21:54.993Z,35.32
2023-04-26T05:24:24.429Z,35.37
2023-04-26T05:26:53.571Z,35.45
2023-04-26T05:29:44.981Z,35.70
2023-04-26T05:32:27.781Z,35.52
2023-04-26T05:35:11.815Z,35.96
2023-04-26T05:37:41.084Z,35.76
2023-04-26T05:40:13.361Z,35.86
2023-04-26T05:42:42.403Z,36.18
2023-04-26T05:45:12.955Z,36.21
2023-04-26T05:47:42.919Z,36.20
2023-04-26T05:50:12.301Z,36.51
2023-04-26T05:52:41.302Z,36.58
2023-04-26T05:55:11.172Z,36.66
2023-04-26T05:57:40.330Z,36.72
2023-04-26T06:04:01.546Z,36.81
2023-04-26T06:06:38.340Z,36.91
2023-04-26T06:09:07.871Z,37.05
2023-04-26T06:11:36.770Z,37.07
2023-04-26T06:14:06.199Z,37.19
2023-04-26T06:16:36.112Z,37.26
2023-04-26T06:19:07.817Z,37.31
2023-04-26T06:21:37.622Z,37.07
2023-04-26T06:24:06.926Z,37.33
2023-04-26T06:26:36.468Z,37.35
2023-04-26T06:29:07.068Z,37.64
2023-04-26T06:31:36.342Z,37.67
2023-04-26T06:34:05.934Z,37.46
2023-04-26T06:36:36.873Z,37.70
2023-04-26T06:39:06.226Z,37.62
2023-04-26T06:41:36.214Z,37.77
2023-04-26T06:44:05.426Z,37.58
2023-04-26T06:46:34.964Z,37.50
2023-04-26T06:49:03.972Z,37.64
2023-04-26T06:51:33.379Z,37.72
2023-04-26T06:54:02.566Z,37.86
2023-04-26T06:56:31.876Z,37.41
2023-04-26T06:59:03.627Z,37.48
2023-04-26T07:01:36.536Z,37.90
2023-04-26T07:04:11.956Z,37.76
2023-04-26T07:06:41.671Z,38.08
2023-04-26T07:09:11.031Z,38.12
2023-04-26T07:11:40.626Z,38.22
2023-04-26T07:14:12.884Z,38.31
2023-04-26T07:16:42.607Z,38.33
2023-04-26T07:19:12.645Z,38.10
2023-04-26T07:21:41.652Z,38.18
2023-04-26T07:24:11.555Z,38.19
2023-04-26T07:26:41.028Z,38.33
2023-04-26T07:29:10.568Z,38.57
2023-04-26T07:31:39.441Z,38.62
2023-04-26T07:34:08.743Z,38.67
2023-04-26T07:36:37.685Z,38.56
2023-04-26T07:39:07.736Z,38.61
2023-04-26T07:41:36.848Z,38.50
2023-04-26T07:44:06.064Z,38.60
2023-04-26T07:46:36.311Z,38.11
2023-04-26T07:49:05.810Z,37.75
2023-04-26T07:51:36.585Z,38.17
2023-04-26T07:54:05.741Z,38.22
2023-04-26T07:56:34.837Z,38.33
2023-04-26T07:59:04.819Z,38.60
2023-04-26T08:01:34.015Z,38.79
2023-04-26T08:04:03.418Z,38.63
2023-04-26T08:06:32.909Z,38.62
2023-04-26T08:09:02.062Z,38.48
2023-04-26T08:11:31.290Z,38.39
2023-04-26T08:14:00.466Z,38.50
2023-04-26T08:16:29.787Z,38.63
2023-04-26T08:19:03.656Z,38.60
2023-04-26T08:21:33.790Z,38.97
2023-04-26T08:24:02.711Z,38.95
2023-04-26T08:26:32.012Z,39.10
2023-04-26T08:29:01.307Z,39.00
2023-04-26T08:31:30.928Z,38.98
2023-04-26T08:33:59.824Z,39.28
2023-04-26T08:36:29.597Z,39.09
2023-04-26T08:38:59.074Z,39.28
2023-04-26T08:41:28.797Z,38.92
2023-04-26T08:48:21.706Z,39.11
2023-04-26T08:50:51.646Z,38.98
2023-04-26T08:53:20.606Z,39.26
2023-04-26T08:55:50.760Z,39.39
2023-04-26T08:58:20.541Z,39.31
2023-04-26T09:00:49.398Z,39.14
2023-04-26T09:03:18.950Z,39.35
2023-04-26T09:05:48.405Z,39.20
2023-04-26T09:08:19.530Z,38.96
2023-04-26T09:10:48.746Z,39.05
2023-04-26T09:13:18.857Z,39.05
2023-04-26T09:15:50.636Z,39.13
2023-04-26T09:18:24.372Z,39.10
2023-04-26T09:21:10.478Z,39.34
2023-04-26T09:24:05.245Z,39.21
2023-04-26T09:26:34.353Z,39.07
2023-04-26T09:33:07.017Z,38.94
2023-04-26T09:35:37.921Z,38.83
2023-04-26T09:38:12.711Z,38.82
2023-04-26T09:40:45.151Z,38.68
2023-04-26T09:43:17.050Z,38.61
2023-04-26T09:45:56.607Z,38.80
2023-04-26T09:48:31.102Z,38.60
2023-04-26T09:51:06.595Z,38.36
2023-04-26T09:53:42.301Z,38.30
2023-04-26T09:56:22.252Z,38.23
2023-04-26T09:58:54.615Z,38.03
2023-04-26T10:01:24.619Z,38.03
2023-04-26T10:03:54.066Z,37.90
2023-04-26T10:06:23.188Z,37.97
2023-04-26T10:08:52.732Z,37.84
2023-04-26T10:11:23.357Z,38.06
2023-04-26T10:13:53.234Z,38.14
2023-04-26T10:16:22.917Z,38.10
2023-04-26T10:18:52.198Z,38.09
2023-04-26T10:21:36.476Z,38.19
2023-04-26T10:24:06.489Z,37.93
2023-04-26T10:26:53.825Z,38.06
2023-04-26T10:29:24.147Z,38.11
2023-04-26T10:32:05.581Z,38.14
2023-04-26T10:34:37.477Z,38.05
2023-04-26T10:37:18.089Z,38.19
2023-04-26T10:39:48.568Z,38.00
2023-04-26T10:42:25.913Z,38.09
2023-04-26T10:44:57.437Z,38.05
2023-04-26T10:47:44.896Z,38.15
2023-04-26T10:50:14.292Z,37.96
2023-04-26T10:53:04.527Z,38.16
2023-04-26T10:55:43.527Z,38.14
2023-04-26T10:58:34.261Z,38.00
2023-04-26T11:01:18.249Z,37.88
2023-04-26T11:03:59.655Z,38.05
2023-04-26T11:06:48.615Z,38.04
2023-04-26T11:09:50.907Z,38.08
2023-04-26T11:12:19.902Z,37.87
2023-04-26T11:14:48.796Z,37.94
2023-04-26T11:17:18.067Z,37.94
2023-04-26T11:19:48.738Z,38.03
2023-04-26T11:22:18.002Z,37.99
2023-04-26T11:24:46.849Z,37.75
2023-04-26T11:27:15.821Z,37.83
2023-04-26T11:29:45.308Z,37.89
2023-04-26T11:32:15.425Z,37.76
2023-04-26T11:34:45.176Z,37.83
2023-04-26T11:37:14.296Z,37.87
2023-04-26T11:39:46.564Z,37.65
2023-04-26T11:42:15.565Z,37.59
2023-04-26T11:44:45.151Z,37.69
2023-04-26T11:47:15.540Z,37.77
2023-04-26T11:49:44.838Z,37.74
2023-04-26T11:52:14.658Z,37.67
2023-04-26T11:54:45.393Z,37.81
2023-04-26T11:57:18.807Z,37.80
2023-04-26T11:59:48.100Z,37.55
2023-04-26T12:02:17.027Z,37.72
2023-04-26T12:04:46.135Z,37.72
2023-04-26T12:07:20.829Z,37.74
2023-04-26T12:09:49.974Z,37.60
2023-04-26T12:12:19.197Z,37.52
2023-04-26T12:14:49.045Z,37.56
2023-04-26T12:17:18.217Z,37.51
2023-04-26T12:19:52.261Z,37.53
2023-04-26T12:22:25.238Z,37.28
2023-04-26T12:25:07.531Z,37.28
2023-04-26T12:27:37.015Z,37.08
2023-04-26T12:30:06.565Z,37.00
2023-04-26T12:32:35.761Z,37.00
2023-04-26T12:35:05.019Z,36.91
2023-04-26T12:37:33.874Z,36.89
2023-04-26T12:40:02.728Z,36.77
2023-04-26T12:42:31.874Z,36.74
2023-04-26T12:45:01.059Z,36.65
2023-04-26T12:47:30.118Z,36.53
2023-04-26T12:50:02.211Z,36.44
2023-04-26T12:52:32.399Z,36.41
2023-04-26T12:55:01.486Z,36.24
2023-04-26T12:57:30.675Z,36.18
2023-04-26T13:00:00.128Z,36.09
2023-04-26T13:02:29.104Z,35.98
2023-04-26T13:04:58.514Z,35.88
2023-04-26T13:07:28.161Z,35.79
2023-04-26T13:09:57.212Z,35.71
2023-04-26T13:12:26.311Z,35.62
2023-04-26T13:14:55.916Z,35.61
2023-04-26T13:17:27.600Z,35.64
2023-04-26T13:19:56.668Z,35.56
2023-04-26T13:22:25.516Z,35.43
2023-04-26T13:24:54.639Z,35.29
2023-04-26T13:27:23.628Z,35.17
2023-04-26T13:29:53.271Z,35.05
2023-04-26T13:32:23.319Z,34.99
2023-04-26T13:34:52.833Z,34.89
2023-04-26T13:37:24.438Z,34.81
2023-04-26T13:39:53.590Z,34.71
2023-04-26T13:42:23.027Z,34.62
2023-04-26T13:44:52.660Z,34.55
2023-04-26T13:47:21.940Z,34.40
2023-04-26T13:49:50.938Z,34.37
2023-04-26T13:52:20.428Z,34.28
2023-04-26T13:54:49.604Z,34.25
2023-04-26T13:57:18.512Z,34.17
2023-04-26T13:59:48.006Z,34.14
2023-04-26T14:02:17.514Z,34.08
2023-04-26T14:04:47.529Z,34.02
2023-04-26T14:07:16.588Z,33.99
2023-04-26T14:09:46.553Z,33.95
2023-04-26T14:12:16.198Z,33.86
2023-04-26T14:14:47.212Z,33.83
2023-04-26T14:17:16.590Z,33.84
2023-04-26T14:19:45.560Z,33.80
2023-04-26T14:22:15.725Z,33.79
2023-04-26T14:24:45.113Z,33.76
2023-04-26T14:27:14.887Z,33.73
2023-04-26T14:29:43.914Z,33.72
2023-04-26T14:32:13.143Z,33.64
2023-04-26T14:34:43.690Z,33.59
2023-04-26T14:37:12.652Z,33.46
2023-04-26T14:39:43.106Z,32.94
2023-04-26T14:46:25.827Z,32.18
2023-04-26T14:48:55.045Z,31.79
2023-04-26T14:51:24.104Z,31.76
2023-04-26T14:53:53.427Z,31.55
2023-04-26T14:56:22.394Z,31.49
2023-04-26T14:58:51.418Z,31.45
2023-04-26T15:01:20.747Z,31.49
2023-04-26T15:03:49.880Z,31.36
2023-04-26T15:06:19.238Z,31.26
2023-04-26T15:08:48.335Z,31.22
2023-04-26T15:11:17.437Z,31.10
2023-04-26T15:13:47.064Z,31.03
2023-04-26T15:16:16.655Z,31.11
2023-04-26T15:18:45.543Z,30.79
2023-04-26T15:21:18.948Z,30.85
2023-04-26T15:23:48.468Z,30.77
2023-04-26T15:26:17.946Z,30.65
2023-04-26T15:28:47.716Z,30.57
2023-04-26T15:31:16.751Z,30.55
2023-04-26T15:33:45.860Z,30.55
2023-04-26T15:36:14.967Z,30.51
2023-04-26T15:38:46.259Z,30.56
2023-04-26T15:41:15.767Z,30.53
2023-04-26T15:43:44.588Z,30.51
2023-04-26T15:46:16.936Z,30.58
2023-04-26T15:48:48.188Z,30.53
2023-04-26T15:51:17.556Z,30.28
2023-04-26T15:53:46.409Z,30.24
2023-04-26T15:56:19.582Z,30.37
2023-04-26T15:58:49.398Z,30.18
2023-04-26T16:01:19.077Z,30.26
2023-04-26T16:03:48.392Z,30.13
2023-04-26T16:06:17.847Z,29.96
2023-04-26T16:08:47.181Z,30.05
2023-04-26T16:11:16.487Z,30.00
2023-04-26T16:13:46.075Z,29.93
2023-04-26T16:16:14.984Z,29.94
2023-04-26T16:18:45.295Z,29.82
2023-04-26T16:21:15.218Z,29.91
2023-04-26T16:23:44.442Z,30.09
2023-04-26T16:26:13.496Z,30.06
2023-04-26T16:28:42.780Z,29.80
2023-04-26T16:31:11.813Z,29.84
2023-04-26T16:33:41.039Z,29.89
2023-04-26T16:36:10.711Z,29.89
2023-04-26T16:38:39.890Z,29.88
2023-04-26T16:41:08.968Z,29.87
2023-04-26T16:43:39.465Z,29.91
2023-04-26T16:46:09.627Z,29.74
2023-04-26T16:48:41.298Z,29.82
2023-04-26T16:51:10.412Z,29.76
2023-04-26T16:53:39.701Z,29.69
2023-04-26T16:56:09.536Z,29.71
2023-04-26T16:58:38.626Z,29.68
2023-04-26T17:01:08.137Z,29.54
2023-04-26T17:03:38.025Z,29.66
2023-04-26T17:06:08.923Z,29.52
2023-04-26T17:08:38.606Z,29.44
2023-04-26T17:11:07.718Z,29.57
2023-04-26T17:13:36.865Z,29.51
2023-04-26T17:16:06.663Z,29.34
2023-04-26T17:18:35.868Z,29.39
2023-04-26T17:21:06.163Z,29.45
2023-04-26T17:23:35.722Z,29.29
2023-04-26T17:26:05.520Z,29.23
2023-04-26T17:28:34.583Z,29.27
2023-04-26T17:31:04.940Z,29.23
2023-04-26T17:33:34.103Z,29.26
2023-04-26T17:36:03.802Z,29.23
2023-04-26T17:38:33.317Z,29.04
2023-04-26T17:41:02.464Z,29.08
2023-04-26T17:43:31.769Z,29.12
2023-04-26T17:46:00.891Z,28.99
2023-04-26T17:48:30.284Z,29.05
2023-04-26T17:50:59.437Z,29.01
2023-04-26T17:53:29.059Z,29.00
2023-04-26T17:55:58.132Z,29.02
2023-04-26T17:58:27.883Z,29.03
2023-04-26T18:00:56.961Z,28.96
2023-04-26T18:03:26.804Z,28.94
2023-04-26T18:05:55.965Z,28.91
2023-04-26T18:08:25.668Z,28.88
2023-04-26T18:10:55.003Z,28.82
2023-04-26T18:13:24.806Z,28.77
2023-04-26T18:15:56.244Z,28.95
2023-04-26T18:18:27.682Z,28.87
2023-04-26T18:20:56.915Z,28.83
2023-04-26T18:23:26.239Z,28.75
2023-04-26T18:25:55.102Z,28.66
2023-04-26T18:28:24.140Z,28.70
2023-04-26T18:31:01.030Z,28.76
2023-04-26T18:33:30.482Z,28.56
2023-04-26T18:35:59.762Z,28.54
2023-04-26T18:38:30.130Z,28.60
2023-04-26T18:40:58.978Z,28.42
2023-04-26T18:43:28.208Z,28.46
2023-04-26T18:45:57.175Z,28.53
2023-04-26T18:48:27.551Z,28.59
2023-04-26T18:50:57.714Z,28.51
2023-04-26T18:53:26.890Z,28.48
2023-04-26T18:55:57.815Z,28.54
2023-04-26T18:58:26.852Z,28.54
2023-04-26T19:00:56.385Z,28.40
2023-04-26T19:03:25.723Z,28.32
2023-04-26T19:05:55.262Z,28.39
2023-04-26T19:08:27.483Z,28.33
2023-04-26T19:10:56.685Z,28.46
2023-04-26T19:13:26.458Z,28.46
2023-04-26T19:15:55.554Z,28.36
2023-04-26T19:18:24.700Z,28.28
2023-04-26T19:20:53.539Z,28.35
2023-04-26T19:23:22.821Z,28.38
2023-04-26T19:25:51.861Z,28.26
2023-04-26T19:28:21.478Z,28.27
2023-04-26T19:30:50.715Z,28.14
2023-04-26T19:33:19.769Z,28.29
2023-04-26T19:35:49.011Z,28.08
2023-04-26T19:38:18.394Z,28.14
2023-04-26T19:40:47.492Z,28.17
2023-04-26T19:43:18.370Z,28.16
2023-04-26T19:45:47.873Z,28.22
2023-04-26T19:48:17.259Z,28.16
2023-04-26T19:50:48.146Z,28.15
2023-04-26T19:53:17.789Z,28.05
2023-04-26T19:55:47.361Z,28.04
2023-04-26T19:58:16.481Z,28.09
2023-04-26T20:00:46.171Z,27.98
2023-04-26T20:03:15.904Z,28.08
2023-04-26T20:05:45.705Z,28.03
2023-04-26T20:08:15.590Z,27.96
2023-04-26T20:10:45.138Z,27.93
2023-04-26T20:13:14.755Z,27.84
2023-04-26T20:15:44.690Z,27.76
2023-04-26T20:18:14.141Z,27.52
2023-04-26T20:20:43.888Z,27.49
2023-04-26T20:23:13.610Z,27.44
2023-04-26T20:25:45.053Z,27.18
2023-04-26T20:28:17.057Z,27.24
2023-04-26T20:30:49.640Z,27.21
2023-04-26T20:33:27.257Z,27.36
2023-04-26T20:36:04.974Z,27.24
2023-04-26T20:38:38.471Z,26.95
2023-04-26T20:41:10.385Z,26.86
2023-04-26T20:43:42.557Z,26.89
2023-04-26T20:46:14.664Z,26.95
2023-04-26T20:48:47.618Z,26.87
2023-04-26T20:51:19.765Z,26.56
2023-04-26T20:53:55.517Z,26.35
2023-04-26T20:56:27.984Z,26.31
2023-04-26T20:59:00.469Z,26.32
2023-04-26T21:01:31.880Z,26.34
2023-04-26T21:04:04.888Z,26.16
2023-04-26T21:06:36.438Z,26.25
2023-04-26T21:09:08.713Z,26.21
2023-04-26T21:11:41.287Z,26.17
2023-04-26T21:14:15.971Z,26.13
2023-04-26T21:16:48.073Z,26.17
2023-04-26T21:19:19.937Z,26.27
2023-04-26T21:21:51.646Z,25.98
2023-04-26T21:24:23.818Z,25.89
2023-04-26T21:26:55.731Z,26.03
2023-04-26T21:29:27.170Z,26.09
2023-04-26T21:32:00.583Z,25.82
2023-04-26T21:34:33.109Z,25.51
2023-04-26T21:37:04.584Z,25.20
2023-04-26T21:39:37.364Z,25.09
2023-04-26T21:42:09.333Z,25.20
2023-04-26T21:44:41.540Z,25.28
2023-04-26T21:47:13.636Z,25.33
2023-04-26T21:49:46.185Z,25.45
2023-04-26T21:52:18.320Z,25.46
2023-04-26T21:54:52.710Z,25.59
2023-04-26T21:57:25.897Z,25.67
2023-04-26T21:59:59.432Z,25.53
2023-04-26T22:02:30.371Z,25.55
2023-04-26T22:05:03.323Z,25.83
2023-04-26T22:07:36.399Z,25.67
2023-04-26T22:10:08.384Z,25.59
2023-04-26T22:12:39.994Z,25.72
2023-04-26T22:15:12.881Z,25.84
2023-04-26T22:17:45.566Z,25.76
2023-04-26T22:20:17.627Z,25.64
2023-04-26T22:22:49.482Z,25.69
2023-04-26T22:25:21.612Z,25.82
2023-04-26T22:27:57.250Z,25.92
2023-04-26T22:30:29.382Z,25.79
2023-04-26T22:33:05.738Z,25.82
2023-04-26T22:35:38.559Z,25.82
2023-04-26T22:38:11.517Z,25.79
2023-04-26T22:40:44.079Z,25.75
2023-04-26T22:43:16.425Z,25.70
2023-04-26T22:45:48.234Z,25.73
2023-04-26T22:48:20.717Z,25.86
2023-04-26T22:50:57.444Z,25.83
2023-04-26T22:53:32.460Z,25.85
2023-04-26T22:56:04.226Z,25.91
2023-04-26T22:58:36.177Z,26.06
2023-04-26T23:01:07.646Z,26.24
2023-04-26T23:03:40.442Z,26.06
2023-04-26T23:06:11.631Z,26.17
2023-04-26T23:08:43.616Z,25.95
2023-04-26T23:11:15.112Z,25.90
2023-04-26T23:13:50.349Z,25.97
2023-04-26T23:16:24.490Z,26.01
2023-04-26T23:18:56.495Z,26.05
2023-04-26T23:21:30.431Z,25.98
2023-04-26T23:24:04.616Z,26.06
2023-04-26T23:26:41.144Z,26.02
2023-04-26T23:29:12.301Z,25.99
2023-04-26T23:31:45.888Z,26.06
2023-04-26T23:34:17.889Z,26.16
2023-04-26T23:36:50.400Z,26.16
2023-04-26T23:39:22.387Z,26.30
2023-04-26T23:41:57.576Z,26.39
2023-04-26T23:44:29.340Z,26.43
2023-04-26T23:47:01.253Z,26.54
2023-04-26T23:49:33.310Z,26.58
2023-04-26T23:52:05.506Z,26.65
2023-04-26T23:54:37.362Z,26.69
2023-04-26T23:57:11.586Z,26.59
2023-04-26T23:59:44.034Z,26.41
